createdAt,value
2022-11-19T00:02:59.968Z,99782.19
2022-11-19T00:08:00.693Z,99805.75
2022-11-19T00:13:01.004Z,99841.94
2022-11-19T00:18:01.981Z,99868.84
2022-11-19T00:23:03.944Z,99874.41
2022-11-19T00:28:09.092Z,99873.78
2022-11-19T00:33:07.927Z,99872.31
2022-11-19T00:38:06.935Z,99866.88
2022-11-19T00:43:26.160Z,99870.13
2022-11-19T00:48:28.371Z,99877.75
2022-11-19T00:53:26.992Z,99919.78
2022-11-19T00:58:28.213Z,99908.56
2022-11-19T01:03:33.321Z,99916.16
2022-11-19T01:09:02.313Z,99904.25
2022-11-19T01:14:02.599Z,99914.38
2022-11-19T01:19:04.428Z,99934.91
2022-11-19T01:24:04.319Z,99956.53
2022-11-19T01:29:05.691Z,99974.19
2022-11-19T01:34:07.365Z,99981.38
2022-11-19T01:39:19.202Z,99990.16
2022-11-19T01:44:40.086Z,99996.03
2022-11-19T01:49:42.595Z,99999.56
2022-11-19T01:54:45.086Z,100016.41
2022-11-19T01:59:42.399Z,100020.47
2022-11-19T02:04:41.888Z,100032.59
2022-11-19T02:09:41.895Z,100032.78
2022-11-19T02:14:50.524Z,100058.34
2022-11-19T02:20:18.293Z,100062.00
2022-11-19T02:25:32.454Z,100070.25
2022-11-19T02:30:33.303Z,100072.94
2022-11-19T02:35:39.892Z,100088.81
2022-11-19T02:40:44.355Z,100073.44
2022-11-19T02:45:56.917Z,100077.16
2022-11-19T02:50:58.445Z,100088.31
2022-11-19T02:56:15.765Z,100099.31
2022-11-19T03:01:33.309Z,100102.13
2022-11-19T03:06:38.720Z,100120.66
2022-11-19T03:11:39.554Z,100143.06
2022-11-19T03:16:45.732Z,100156.50
2022-11-19T03:21:44.948Z,100172.44
2022-11-19T03:26:45.737Z,100183.28
2022-11-19T03:31:54.634Z,100182.53
2022-11-19T03:36:54.291Z,100197.44
2022-11-19T03:42:07.792Z,100211.16
2022-11-19T03:47:08.587Z,100217.38
2022-11-19T03:52:13.824Z,100218.56
2022-11-19T03:57:12.706Z,100219.91
2022-11-19T04:02:13.641Z,100211.81
2022-11-19T04:07:19.599Z,100224.28
2022-11-19T04:12:23.266Z,100225.88
2022-11-19T04:17:21.443Z,100227.69
2022-11-19T04:22:23.051Z,100238.34
2022-11-19T04:27:27.495Z,100254.41
2022-11-19T04:32:27.335Z,100259.75
2022-11-19T04:37:25.850Z,100278.84
2022-11-19T04:42:24.456Z,100266.34
2022-11-19T04:47:21.606Z,100281.91
2022-11-19T04:52:24.355Z,100288.06
2022-11-19T04:57:25.652Z,100295.19
2022-11-19T05:02:29.657Z,100286.81
2022-11-19T05:07:28.812Z,100299.09
2022-11-19T05:12:27.612Z,100311.31
2022-11-19T05:17:29.448Z,100328.91
2022-11-19T05:22:28.781Z,100341.72
2022-11-19T05:27:31.673Z,100354.44
2022-11-19T05:32:34.078Z,100367.50
2022-11-19T05:37:35.062Z,100382.84
2022-11-19T05:42:34.246Z,100394.03
2022-11-19T05:47:33.266Z,100384.81
2022-11-19T05:52:35.773Z,100400.75
2022-11-19T05:57:39.789Z,100423.78
2022-11-19T06:02:44.168Z,100428.00
2022-11-19T06:07:44.715Z,100426.19
2022-11-19T06:12:55.181Z,100438.59
2022-11-19T06:17:58.229Z,100462.16
2022-11-19T06:22:58.282Z,100476.28
2022-11-19T06:28:00.016Z,100477.91
2022-11-19T06:33:01.023Z,100502.09
2022-11-19T06:38:02.328Z,100520.28
2022-11-19T06:43:14.555Z,100526.81
2022-11-19T06:48:14.697Z,100537.94
2022-11-19T06:53:15.892Z,100548.47
2022-11-19T06:58:16.987Z,100572.22
2022-11-19T07:03:17.414Z,100581.97
2022-11-19T07:08:16.718Z,100585.97
2022-11-19T07:13:18.654Z,100589.63
2022-11-19T07:18:16.891Z,100591.19
2022-11-19T07:23:20.459Z,100599.91
2022-11-19T07:28:29.812Z,100596.81
2022-11-19T07:33:30.571Z,100616.50
2022-11-19T07:38:36.802Z,100624.75
2022-11-19T07:43:37.919Z,100617.47
2022-11-19T07:48:41.356Z,100627.22
2022-11-19T07:53:44.177Z,100644.31
2022-11-19T07:58:46.686Z,100666.00
2022-11-19T08:03:52.051Z,100676.09
2022-11-19T08:08:57.076Z,100685.59
2022-11-19T08:13:55.210Z,100695.88
2022-11-19T08:18:58.438Z,100697.25
2022-11-19T08:23:59.758Z,100690.03
2022-11-19T08:29:09.424Z,100707.66
2022-11-19T08:34:16.122Z,100715.38
2022-11-19T08:39:16.268Z,100717.25
2022-11-19T08:44:18.401Z,100728.31
2022-11-19T08:49:16.287Z,100726.19
2022-11-19T08:54:20.022Z,100721.19
2022-11-19T08:59:19.406Z,100724.91
2022-11-19T09:04:19.842Z,100738.94
2022-11-19T09:09:33.090Z,100729.78
2022-11-19T09:14:32.238Z,100737.09
2022-11-19T09:19:33.670Z,100742.19
2022-11-19T09:24:32.143Z,100754.19
2022-11-19T09:29:35.523Z,100751.66
2022-11-19T09:34:39.946Z,100747.25
2022-11-19T09:39:38.495Z,100745.63
2022-11-19T09:44:57.906Z,100737.75
2022-11-19T09:50:01.561Z,100747.81
2022-11-19T09:55:04.372Z,100749.25
2022-11-19T10:00:04.089Z,100746.84
2022-11-19T10:05:16.539Z,100744.38
2022-11-19T10:10:26.172Z,100734.38
2022-11-19T10:15:27.086Z,100745.31
2022-11-19T10:20:36.939Z,100737.44
2022-11-19T10:26:03.605Z,100738.72
2022-11-19T10:31:12.358Z,100731.38
2022-11-19T10:36:33.241Z,100722.94
2022-11-19T10:41:46.842Z,100708.94
2022-11-19T10:46:52.314Z,100705.56
2022-11-19T10:51:51.160Z,100722.78
2022-11-19T10:56:49.772Z,100738.06
2022-11-19T11:01:53.925Z,100745.81
2022-11-19T11:06:55.519Z,100743.41
2022-11-19T11:12:13.056Z,100745.03
2022-11-19T11:17:19.338Z,100748.59
2022-11-19T11:22:21.458Z,100753.09
2022-11-19T11:27:24.673Z,100739.31
2022-11-19T11:32:31.409Z,100723.69
2022-11-19T11:37:45.632Z,100722.09
2022-11-19T11:42:44.891Z,100704.09
2022-11-19T11:47:43.476Z,100703.25
2022-11-19T11:52:46.717Z,100706.50
2022-11-19T11:58:03.823Z,100722.72
2022-11-19T12:03:02.647Z,100721.28
2022-11-19T12:08:04.555Z,100715.44
2022-11-19T12:13:02.918Z,100723.16
2022-11-19T12:18:01.732Z,100725.41
2022-11-19T12:23:01.927Z,100729.03
2022-11-19T12:28:15.749Z,100733.56
2022-11-19T12:33:25.990Z,100742.00
2022-11-19T12:38:30.825Z,100754.84
2022-11-19T12:43:28.941Z,100746.94
2022-11-19T12:48:45.993Z,100750.97
2022-11-19T12:53:59.774Z,100746.69
2022-11-19T12:59:08.824Z,100744.88
2022-11-19T13:04:19.645Z,100730.06
2022-11-19T13:09:18.454Z,100746.50
2022-11-19T13:14:30.312Z,100761.31
2022-11-19T13:19:34.504Z,100783.38
2022-11-19T13:24:43.365Z,100771.81
2022-11-19T13:29:41.584Z,100794.88
2022-11-19T13:34:45.762Z,100803.97
2022-11-19T13:39:49.703Z,100793.44
2022-11-19T13:44:48.599Z,100805.00
2022-11-19T13:49:48.043Z,100810.66
2022-11-19T13:54:46.040Z,100808.56
2022-11-19T13:59:44.413Z,100810.25
2022-11-19T14:04:42.561Z,100832.69
2022-11-19T14:09:43.184Z,100839.75
2022-11-19T14:15:07.677Z,100843.91
2022-11-19T14:20:45.092Z,100833.94
2022-11-19T14:26:03.544Z,100825.38
2022-11-19T14:31:05.125Z,100820.44
2022-11-19T14:36:08.972Z,100817.19
2022-11-19T14:41:15.757Z,100800.81
2022-11-19T14:46:14.403Z,100804.59
2022-11-19T14:51:13.314Z,100807.41
2022-11-19T14:56:11.460Z,100831.41
2022-11-19T15:01:10.861Z,100838.78
2022-11-19T15:06:08.092Z,100823.75
2022-11-19T15:11:07.372Z,100811.59
2022-11-19T15:16:41.178Z,100775.41
2022-11-19T15:21:54.670Z,100817.22
2022-11-19T15:27:17.766Z,100822.47
2022-11-19T15:32:15.512Z,100841.56
2022-11-19T15:37:15.581Z,100850.91
2022-11-19T15:42:17.896Z,100838.13
2022-11-19T15:47:21.421Z,100850.34
2022-11-19T15:52:22.407Z,100865.88
2022-11-19T15:57:28.944Z,100887.03
2022-11-19T16:02:34.009Z,100846.44
2022-11-19T16:07:33.341Z,100826.22
2022-11-19T16:12:55.887Z,100837.88
2022-11-19T16:18:03.194Z,100847.22
2022-11-19T16:23:07.448Z,100851.31
2022-11-19T16:28:07.213Z,100855.28
2022-11-19T16:33:09.215Z,100841.34
2022-11-19T16:38:11.660Z,100836.00
2022-11-19T16:43:10.547Z,100822.91
2022-11-19T16:48:30.265Z,100853.78
2022-11-19T16:53:49.959Z,100884.03
2022-11-19T16:58:59.393Z,100867.66
2022-11-19T17:04:02.547Z,100905.06
2022-11-19T17:09:11.882Z,100891.09
2022-11-19T17:14:21.668Z,100880.25
2022-11-19T17:19:40.738Z,100900.63
2022-11-19T17:24:46.265Z,100871.78
2022-11-19T17:30:07.614Z,100882.53
2022-11-19T17:35:08.020Z,100867.00
2022-11-19T17:40:11.004Z,100867.25
2022-11-19T17:45:24.825Z,100851.69
2022-11-19T17:50:35.587Z,100872.25
2022-11-19T17:56:05.830Z,100879.88
2022-11-19T18:01:09.133Z,100855.94
2022-11-19T18:06:26.511Z,100855.59
2022-11-19T18:11:34.752Z,100857.47
2022-11-19T18:16:59.639Z,100849.31
2022-11-19T18:22:06.961Z,100839.31
2022-11-19T18:27:23.063Z,100839.94
2022-11-19T18:32:30.737Z,100842.94
2022-11-19T18:37:46.924Z,100819.28
2022-11-19T18:48:38.771Z,100829.34
2022-11-19T18:53:43.980Z,100821.72
2022-11-19T18:59:03.200Z,100824.69
2022-11-19T19:04:14.814Z,100813.84
2022-11-19T19:09:31.433Z,100820.00
2022-11-19T19:14:47.687Z,100841.56
2022-11-19T19:19:45.809Z,100834.97
2022-11-19T19:24:44.978Z,100815.50
2022-11-19T19:29:43.963Z,100792.66
2022-11-19T19:34:43.322Z,100795.13
2022-11-19T19:39:43.880Z,100816.47
2022-11-19T19:44:42.520Z,100798.00
2022-11-19T19:49:40.499Z,100800.16
2022-11-19T19:54:41.286Z,100823.59
2022-11-19T19:59:40.117Z,100818.81
2022-11-19T20:04:41.521Z,100813.84
2022-11-19T20:09:41.179Z,100795.53
2022-11-19T20:14:41.587Z,100772.53
2022-11-19T20:19:41.694Z,100808.88
2022-11-19T20:24:42.689Z,100801.28
2022-11-19T20:29:40.975Z,100780.66
2022-11-19T20:34:42.472Z,100760.19
2022-11-19T20:39:41.858Z,100758.88
2022-11-19T20:44:41.822Z,100739.31
2022-11-19T20:49:43.958Z,100721.78
2022-11-19T20:54:43.104Z,100724.56
2022-11-19T20:59:43.662Z,100713.63
2022-11-19T21:04:43.285Z,100706.28
2022-11-19T21:09:43.266Z,100695.03
2022-11-19T21:14:42.576Z,100680.41
2022-11-19T21:19:42.965Z,100664.16
2022-11-19T21:24:42.797Z,100661.88
2022-11-19T21:29:45.691Z,100651.16
2022-11-19T21:34:45.254Z,100650.91
2022-11-19T21:39:45.798Z,100631.50
2022-11-19T21:44:44.999Z,100637.59
2022-11-19T21:49:45.343Z,100623.88
2022-11-19T21:54:47.136Z,100617.84
2022-11-19T21:59:46.652Z,100615.09
2022-11-19T22:04:48.730Z,100612.56
2022-11-19T22:09:49.177Z,100610.47
2022-11-19T22:14:49.591Z,100594.16
2022-11-19T22:19:48.309Z,100584.56
2022-11-19T22:24:45.696Z,100582.53
2022-11-19T22:29:45.450Z,100572.22
2022-11-19T22:34:47.361Z,100577.66
2022-11-19T22:39:46.242Z,100561.63
2022-11-19T22:44:45.066Z,100564.84
2022-11-19T22:49:44.822Z,100577.88
2022-11-19T22:54:43.994Z,100570.19
2022-11-19T22:59:45.624Z,100566.75
2022-11-19T23:04:48.526Z,100556.66
2022-11-19T23:09:49.460Z,100548.16
2022-11-19T23:14:48.681Z,100550.19
2022-11-19T23:19:53.351Z,100548.25
2022-11-19T23:24:55.454Z,100553.19
2022-11-19T23:29:52.713Z,100542.38
2022-11-19T23:34:52.339Z,100542.16
2022-11-19T23:39:53.626Z,100550.06
2022-11-19T23:44:52.232Z,100526.00
2022-11-19T23:49:54.187Z,100530.72
2022-11-19T23:54:53.080Z,100522.94
2022-11-19T23:59:51.764Z,100528.59
